sensor_id;sensor_type;location;lat;lon;timestamp;pressure;altitude;pressure_sealevel;temperature;humidity
60874;BME280;46715;40.642;-7.920;2023-04-08T00:01:20;96098.53;;;14.10;61.52
60874;BME280;46715;40.642;-7.920;2023-04-08T00:03:20;96099.31;;;14.10;61.53
60874;BME280;46715;40.642;-7.920;2023-04-08T00:05:21;96094.75;;;14.16;61.33
60874;BME280;46715;40.642;-7.920;2023-04-08T00:07:22;96094.63;;;14.21;61.16
60874;BME280;46715;40.642;-7.920;2023-04-08T00:09:23;96094.91;;;14.33;60.91
60874;BME280;46715;40.642;-7.920;2023-04-08T00:11:24;96100.25;;;14.42;60.59
60874;BME280;46715;40.642;-7.920;2023-04-08T00:13:25;96089.63;;;14.47;60.20
60874;BME280;46715;40.642;-7.920;2023-04-08T00:15:26;96096.91;;;14.51;59.88
60874;BME280;46715;40.642;-7.920;2023-04-08T00:17:26;96089.44;;;14.44;59.90
60874;BME280;46715;40.642;-7.920;2023-04-08T00:19:28;96090.44;;;14.34;60.04
60874;BME280;46715;40.642;-7.920;2023-04-08T00:21:28;96093.25;;;14.24;60.42
60874;BME280;46715;40.642;-7.920;2023-04-08T00:23:29;96091.25;;;14.21;60.46
60874;BME280;46715;40.642;-7.920;2023-04-08T00:25:30;96089.59;;;14.11;60.57
60874;BME280;46715;40.642;-7.920;2023-04-08T00:27:31;96088.44;;;14.03;60.74
60874;BME280;46715;40.642;-7.920;2023-04-08T00:29:32;96090.69;;;13.96;61.17
60874;BME280;46715;40.642;-7.920;2023-04-08T00:31:32;96085.81;;;13.89;61.09
60874;BME280;46715;40.642;-7.920;2023-04-08T00:33:34;96088.56;;;13.84;61.28
60874;BME280;46715;40.642;-7.920;2023-04-08T00:35:37;96095.44;;;13.80;61.58
60874;BME280;46715;40.642;-7.920;2023-04-08T00:37:38;96090.78;;;13.77;61.54
60874;BME280;46715;40.642;-7.920;2023-04-08T00:39:39;96091.94;;;13.71;61.73
60874;BME280;46715;40.642;-7.920;2023-04-08T00:41:39;96090.19;;;13.66;61.95
60874;BME280;46715;40.642;-7.920;2023-04-08T00:43:40;96094.75;;;13.60;62.12
60874;BME280;46715;40.642;-7.920;2023-04-08T00:45:41;96090.59;;;13.59;62.30
60874;BME280;46715;40.642;-7.920;2023-04-08T00:47:42;96093.38;;;13.63;62.73
60874;BME280;46715;40.642;-7.920;2023-04-08T00:49:43;96087.88;;;13.64;62.59
60874;BME280;46715;40.642;-7.920;2023-04-08T00:51:43;96095.03;;;13.59;62.17
60874;BME280;46715;40.642;-7.920;2023-04-08T00:53:44;96089.50;;;13.46;62.18
60874;BME280;46715;40.642;-7.920;2023-04-08T00:55:46;96096.19;;;13.39;62.58
60874;BME280;46715;40.642;-7.920;2023-04-08T00:57:46;96088.91;;;13.36;63.01
60874;BME280;46715;40.642;-7.920;2023-04-08T00:59:47;96089.47;;;13.33;63.01
60874;BME280;46715;40.642;-7.920;2023-04-08T01:01:56;96093.13;;;13.32;63.37
60874;BME280;46715;40.642;-7.920;2023-04-08T01:06:31;96085.94;;;13.23;63.89
60874;BME280;46715;40.642;-7.920;2023-04-08T01:08:37;96087.28;;;13.21;63.92
60874;BME280;46715;40.642;-7.920;2023-04-08T01:10:39;96085.03;;;13.14;64.45
60874;BME280;46715;40.642;-7.920;2023-04-08T01:12:48;96087.72;;;13.09;64.17
60874;BME280;46715;40.642;-7.920;2023-04-08T01:14:50;96092.50;;;13.07;64.10
60874;BME280;46715;40.642;-7.920;2023-04-08T01:16:53;96086.28;;;13.03;64.56
60874;BME280;46715;40.642;-7.920;2023-04-08T01:18:55;96085.00;;;13.00;64.53
60874;BME280;46715;40.642;-7.920;2023-04-08T01:20:59;96088.25;;;12.92;65.11
60874;BME280;46715;40.642;-7.920;2023-04-08T01:25:22;96091.75;;;12.87;65.37
60874;BME280;46715;40.642;-7.920;2023-04-08T01:27:24;96091.53;;;12.84;65.63
60874;BME280;46715;40.642;-7.920;2023-04-08T01:29:26;96085.31;;;12.79;66.17
60874;BME280;46715;40.642;-7.920;2023-04-08T01:31:27;96088.78;;;12.75;66.44
60874;BME280;46715;40.642;-7.920;2023-04-08T01:33:31;96085.19;;;12.71;66.23
60874;BME280;46715;40.642;-7.920;2023-04-08T01:35:32;96089.94;;;12.69;66.45
60874;BME280;46715;40.642;-7.920;2023-04-08T01:37:33;96087.38;;;12.64;66.80
60874;BME280;46715;40.642;-7.920;2023-04-08T01:39:34;96085.13;;;12.57;67.00
60874;BME280;46715;40.642;-7.920;2023-04-08T01:41:36;96088.03;;;12.55;67.17
60874;BME280;46715;40.642;-7.920;2023-04-08T01:43:40;96077.56;;;12.55;67.36
60874;BME280;46715;40.642;-7.920;2023-04-08T01:45:43;96082.56;;;12.52;67.23
60874;BME280;46715;40.642;-7.920;2023-04-08T01:47:45;96081.88;;;12.46;67.78
60874;BME280;46715;40.642;-7.920;2023-04-08T01:49:50;96077.22;;;12.43;67.33
60874;BME280;46715;40.642;-7.920;2023-04-08T01:51:51;96074.38;;;12.39;67.42
60874;BME280;46715;40.642;-7.920;2023-04-08T01:53:53;96082.22;;;12.39;67.42
60874;BME280;46715;40.642;-7.920;2023-04-08T01:55:56;96071.00;;;12.39;67.65
60874;BME280;46715;40.642;-7.920;2023-04-08T01:57:58;96072.03;;;12.38;67.38
60874;BME280;46715;40.642;-7.920;2023-04-08T02:00:00;96073.19;;;12.32;67.48
60874;BME280;46715;40.642;-7.920;2023-04-08T02:02:04;96069.50;;;12.33;67.73
60874;BME280;46715;40.642;-7.920;2023-04-08T02:04:06;96073.66;;;12.34;67.63
60874;BME280;46715;40.642;-7.920;2023-04-08T02:06:07;96071.00;;;12.39;67.53
60874;BME280;46715;40.642;-7.920;2023-04-08T02:08:07;96069.22;;;12.34;67.54
60874;BME280;46715;40.642;-7.920;2023-04-08T02:10:08;96072.25;;;12.41;66.87
60874;BME280;46715;40.642;-7.920;2023-04-08T02:12:09;96065.13;;;12.47;66.44
60874;BME280;46715;40.642;-7.920;2023-04-08T02:14:10;96066.75;;;12.43;66.05
60874;BME280;46715;40.642;-7.920;2023-04-08T02:18:15;96063.28;;;12.48;66.34
60874;BME280;46715;40.642;-7.920;2023-04-08T02:20:22;96063.97;;;12.53;66.56
60874;BME280;46715;40.642;-7.920;2023-04-08T02:22:29;96058.28;;;12.51;66.01
60874;BME280;46715;40.642;-7.920;2023-04-08T02:24:31;96056.94;;;12.54;65.90
60874;BME280;46715;40.642;-7.920;2023-04-08T02:26:35;96057.13;;;12.57;65.59
60874;BME280;46715;40.642;-7.920;2023-04-08T02:28:36;96056.84;;;12.59;65.48
60874;BME280;46715;40.642;-7.920;2023-04-08T02:30:40;96059.44;;;12.59;65.61
60874;BME280;46715;40.642;-7.920;2023-04-08T02:32:41;96060.31;;;12.54;65.95
60874;BME280;46715;40.642;-7.920;2023-04-08T02:34:43;96058.56;;;12.50;66.12
60874;BME280;46715;40.642;-7.920;2023-04-08T02:36:44;96057.28;;;12.47;65.77
60874;BME280;46715;40.642;-7.920;2023-04-08T02:38:47;96066.75;;;12.43;65.96
60874;BME280;46715;40.642;-7.920;2023-04-08T02:40:50;96062.38;;;12.38;66.10
60874;BME280;46715;40.642;-7.920;2023-04-08T02:42:51;96064.47;;;12.36;66.09
60874;BME280;46715;40.642;-7.920;2023-04-08T02:44:53;96057.97;;;12.34;66.00
60874;BME280;46715;40.642;-7.920;2023-04-08T02:46:53;96061.69;;;12.33;66.29
60874;BME280;46715;40.642;-7.920;2023-04-08T02:48:56;96067.38;;;12.35;66.21
60874;BME280;46715;40.642;-7.920;2023-04-08T02:50:56;96061.44;;;12.29;66.10
60874;BME280;46715;40.642;-7.920;2023-04-08T02:52:57;96056.50;;;12.27;66.20
60874;BME280;46715;40.642;-7.920;2023-04-08T02:54:58;96055.22;;;12.25;66.23
60874;BME280;46715;40.642;-7.920;2023-04-08T02:57:01;96055.00;;;12.21;66.54
60874;BME280;46715;40.642;-7.920;2023-04-08T02:59:02;96057.91;;;12.20;66.25
60874;BME280;46715;40.642;-7.920;2023-04-08T03:01:03;96054.28;;;12.16;66.54
60874;BME280;46715;40.642;-7.920;2023-04-08T03:03:04;96051.97;;;12.14;66.03
60874;BME280;46715;40.642;-7.920;2023-04-08T03:05:05;96047.03;;;12.13;66.61
60874;BME280;46715;40.642;-7.920;2023-04-08T03:07:07;96050.78;;;12.06;66.65
60874;BME280;46715;40.642;-7.920;2023-04-08T03:09:07;96044.28;;;12.04;66.15
60874;BME280;46715;40.642;-7.920;2023-04-08T03:11:09;96043.47;;;12.03;66.62
60874;BME280;46715;40.642;-7.920;2023-04-08T03:13:10;96045.88;;;12.00;66.43
60874;BME280;46715;40.642;-7.920;2023-04-08T03:15:11;96046.38;;;12.02;66.55
60874;BME280;46715;40.642;-7.920;2023-04-08T03:17:11;96041.72;;;11.99;67.03
60874;BME280;46715;40.642;-7.920;2023-04-08T03:19:12;96042.75;;;11.98;67.00
60874;BME280;46715;40.642;-7.920;2023-04-08T03:21:12;96049.06;;;11.97;67.10
60874;BME280;46715;40.642;-7.920;2023-04-08T03:23:13;96045.66;;;11.96;66.77
60874;BME280;46715;40.642;-7.920;2023-04-08T03:25:13;96049.56;;;11.93;67.57
60874;BME280;46715;40.642;-7.920;2023-04-08T03:27:14;96053.28;;;11.92;67.32
60874;BME280;46715;40.642;-7.920;2023-04-08T03:29:15;96044.63;;;11.92;67.27
60874;BME280;46715;40.642;-7.920;2023-04-08T03:31:16;96045.19;;;11.89;67.49
60874;BME280;46715;40.642;-7.920;2023-04-08T03:33:17;96043.34;;;11.89;67.72
60874;BME280;46715;40.642;-7.920;2023-04-08T03:35:17;96049.44;;;11.85;67.28
60874;BME280;46715;40.642;-7.920;2023-04-08T03:37:18;96043.97;;;11.81;67.41
60874;BME280;46715;40.642;-7.920;2023-04-08T03:39:19;96038.75;;;11.81;67.25
60874;BME280;46715;40.642;-7.920;2023-04-08T03:41:19;96046.09;;;11.79;67.17
60874;BME280;46715;40.642;-7.920;2023-04-08T03:43:20;96046.94;;;11.74;67.90
60874;BME280;46715;40.642;-7.920;2023-04-08T03:45:21;96039.66;;;11.71;67.78
60874;BME280;46715;40.642;-7.920;2023-04-08T03:47:23;96041.50;;;11.71;68.11
60874;BME280;46715;40.642;-7.920;2023-04-08T03:49:23;96045.44;;;11.68;68.54
60874;BME280;46715;40.642;-7.920;2023-04-08T03:51:25;96041.53;;;11.66;68.48
60874;BME280;46715;40.642;-7.920;2023-04-08T03:53:27;96041.34;;;11.62;68.73
60874;BME280;46715;40.642;-7.920;2023-04-08T03:55:28;96041.09;;;11.58;68.85
60874;BME280;46715;40.642;-7.920;2023-04-08T03:57:29;96048.72;;;11.55;68.91
60874;BME280;46715;40.642;-7.920;2023-04-08T03:59:30;96043.75;;;11.53;69.06
60874;BME280;46715;40.642;-7.920;2023-04-08T04:01:31;96035.72;;;11.50;69.32
60874;BME280;46715;40.642;-7.920;2023-04-08T04:03:31;96040.94;;;11.50;69.30
60874;BME280;46715;40.642;-7.920;2023-04-08T04:05:32;96041.72;;;11.50;69.28
60874;BME280;46715;40.642;-7.920;2023-04-08T04:07:33;96036.28;;;11.47;69.83
60874;BME280;46715;40.642;-7.920;2023-04-08T04:09:33;96032.41;;;11.44;69.79
60874;BME280;46715;40.642;-7.920;2023-04-08T04:11:34;96042.84;;;11.44;69.38
60874;BME280;46715;40.642;-7.920;2023-04-08T04:13:35;96044.94;;;11.42;69.42
60874;BME280;46715;40.642;-7.920;2023-04-08T04:15:39;96038.22;;;11.36;70.00
60874;BME280;46715;40.642;-7.920;2023-04-08T04:17:39;96046.34;;;11.34;69.76
60874;BME280;46715;40.642;-7.920;2023-04-08T04:19:40;96037.44;;;11.35;69.48
60874;BME280;46715;40.642;-7.920;2023-04-08T04:21:42;96037.50;;;11.30;69.54
60874;BME280;46715;40.642;-7.920;2023-04-08T04:23:43;96039.81;;;11.32;69.70
60874;BME280;46715;40.642;-7.920;2023-04-08T04:25:44;96042.00;;;11.24;69.21
60874;BME280;46715;40.642;-7.920;2023-04-08T04:27:44;96040.16;;;11.25;69.53
60874;BME280;46715;40.642;-7.920;2023-04-08T04:29:45;96047.97;;;11.25;69.64
60874;BME280;46715;40.642;-7.920;2023-04-08T04:31:46;96041.16;;;11.29;69.86
60874;BME280;46715;40.642;-7.920;2023-04-08T04:33:46;96039.88;;;11.26;69.69
60874;BME280;46715;40.642;-7.920;2023-04-08T04:35:47;96045.66;;;11.23;70.08
60874;BME280;46715;40.642;-7.920;2023-04-08T04:37:48;96043.03;;;11.23;70.25
60874;BME280;46715;40.642;-7.920;2023-04-08T04:39:49;96040.16;;;11.25;69.96
60874;BME280;46715;40.642;-7.920;2023-04-08T04:41:50;96045.78;;;11.37;69.59
60874;BME280;46715;40.642;-7.920;2023-04-08T04:43:51;96041.59;;;11.36;69.46
60874;BME280;46715;40.642;-7.920;2023-04-08T04:45:52;96041.56;;;11.41;69.38
60874;BME280;46715;40.642;-7.920;2023-04-08T04:47:52;96041.56;;;11.41;69.64
60874;BME280;46715;40.642;-7.920;2023-04-08T04:49:53;96042.59;;;11.40;69.81
60874;BME280;46715;40.642;-7.920;2023-04-08T04:51:54;96042.41;;;11.37;70.04
60874;BME280;46715;40.642;-7.920;2023-04-08T04:53:54;96043.22;;;11.32;70.25
60874;BME280;46715;40.642;-7.920;2023-04-08T04:55:55;96042.41;;;11.37;69.91
60874;BME280;46715;40.642;-7.920;2023-04-08T04:57:56;96048.59;;;11.41;69.45
60874;BME280;46715;40.642;-7.920;2023-04-08T04:59:57;96046.78;;;11.41;69.17
60874;BME280;46715;40.642;-7.920;2023-04-08T05:01:57;96044.44;;;11.40;68.92
60874;BME280;46715;40.642;-7.920;2023-04-08T05:03:58;96047.53;;;11.42;68.46
60874;BME280;46715;40.642;-7.920;2023-04-08T05:05:58;96045.44;;;11.44;68.71
60874;BME280;46715;40.642;-7.920;2023-04-08T05:07:59;96042.41;;;11.37;68.85
60874;BME280;46715;40.642;-7.920;2023-04-08T05:10:00;96042.88;;;11.39;68.72
60874;BME280;46715;40.642;-7.920;2023-04-08T05:12:01;96043.66;;;11.39;67.66
60874;BME280;46715;40.642;-7.920;2023-04-08T05:14:02;96050.72;;;11.39;67.43
60874;BME280;46715;40.642;-7.920;2023-04-08T05:16:02;96055.91;;;11.44;66.79
60874;BME280;46715;40.642;-7.920;2023-04-08T05:18:03;96043.13;;;11.42;66.51
60874;BME280;46715;40.642;-7.920;2023-04-08T05:20:04;96043.88;;;11.43;66.60
60874;BME280;46715;40.642;-7.920;2023-04-08T05:22:05;96045.97;;;11.41;66.89
60874;BME280;46715;40.642;-7.920;2023-04-08T05:24:06;96052.56;;;11.38;66.43
60874;BME280;46715;40.642;-7.920;2023-04-08T05:26:07;96053.59;;;11.37;66.41
60874;BME280;46715;40.642;-7.920;2023-04-08T05:28:08;96051.00;;;11.37;66.11
60874;BME280;46715;40.642;-7.920;2023-04-08T05:30:09;96056.69;;;11.39;66.09
60874;BME280;46715;40.642;-7.920;2023-04-08T05:32:09;96052.28;;;11.40;65.33
60874;BME280;46715;40.642;-7.920;2023-04-08T05:34:10;96056.66;;;11.45;65.26
60874;BME280;46715;40.642;-7.920;2023-04-08T05:36:11;96050.16;;;11.42;65.43
60874;BME280;46715;40.642;-7.920;2023-04-08T05:38:12;96054.09;;;11.39;65.62
60874;BME280;46715;40.642;-7.920;2023-04-08T05:40:12;96053.03;;;11.40;65.01
60874;BME280;46715;40.642;-7.920;2023-04-08T05:42:13;96055.94;;;11.39;64.81
60874;BME280;46715;40.642;-7.920;2023-04-08T05:44:14;96062.72;;;11.40;64.57
60874;BME280;46715;40.642;-7.920;2023-04-08T05:46:14;96056.97;;;11.38;64.37
60874;BME280;46715;40.642;-7.920;2023-04-08T05:48:15;96059.09;;;11.36;64.11
60874;BME280;46715;40.642;-7.920;2023-04-08T05:50:16;96058.88;;;11.32;63.87
60874;BME280;46715;40.642;-7.920;2023-04-08T05:52:16;96063.34;;;11.26;64.17
60874;BME280;46715;40.642;-7.920;2023-04-08T05:54:17;96064.13;;;11.27;64.08
60874;BME280;46715;40.642;-7.920;2023-04-08T05:56:18;96064.13;;;11.27;63.52
60874;BME280;46715;40.642;-7.920;2023-04-08T05:58:18;96062.53;;;11.31;63.24
60874;BME280;46715;40.642;-7.920;2023-04-08T06:00:19;96063.81;;;11.34;63.31
60874;BME280;46715;40.642;-7.920;2023-04-08T06:02:20;96069.81;;;11.34;62.98
60874;BME280;46715;40.642;-7.920;2023-04-08T06:04:21;96072.16;;;11.36;63.09
60874;BME280;46715;40.642;-7.920;2023-04-08T06:06:22;96059.88;;;11.36;62.50
60874;BME280;46715;40.642;-7.920;2023-04-08T06:08:25;96070.28;;;11.41;62.18
60874;BME280;46715;40.642;-7.920;2023-04-08T06:10:25;96069.94;;;11.48;61.34
60874;BME280;46715;40.642;-7.920;2023-04-08T06:12:26;96072.78;;;11.52;60.99
60874;BME280;46715;40.642;-7.920;2023-04-08T06:14:27;96070.13;;;11.57;60.95
60874;BME280;46715;40.642;-7.920;2023-04-08T06:16:27;96075.50;;;11.66;60.22
60874;BME280;46715;40.642;-7.920;2023-04-08T06:18:28;96073.31;;;11.73;60.24
60874;BME280;46715;40.642;-7.920;2023-04-08T06:20:29;96073.22;;;11.83;59.55
60874;BME280;46715;40.642;-7.920;2023-04-08T06:22:29;96074.72;;;11.89;59.78
60874;BME280;46715;40.642;-7.920;2023-04-08T06:24:30;96085.66;;;11.97;59.95
60874;BME280;46715;40.642;-7.920;2023-04-08T06:26:30;96074.28;;;12.06;59.33
60874;BME280;46715;40.642;-7.920;2023-04-08T06:28:32;96081.16;;;12.21;58.51
60874;BME280;46715;40.642;-7.920;2023-04-08T06:30:32;96080.47;;;12.35;58.13
60874;BME280;46715;40.642;-7.920;2023-04-08T06:32:33;96084.00;;;12.44;57.92
60874;BME280;46715;40.642;-7.920;2023-04-08T06:34:34;96087.22;;;12.55;57.97
60874;BME280;46715;40.642;-7.920;2023-04-08T06:36:35;96088.16;;;12.64;58.15
60874;BME280;46715;40.642;-7.920;2023-04-08T06:38:36;96091.47;;;12.70;57.98
60874;BME280;46715;40.642;-7.920;2023-04-08T06:40:38;96090.53;;;12.79;57.31
60874;BME280;46715;40.642;-7.920;2023-04-08T06:42:38;96089.47;;;13.00;57.40
60874;BME280;46715;40.642;-7.920;2023-04-08T06:44:53;96089.50;;;13.46;55.67
60874;BME280;46715;40.642;-7.920;2023-04-08T06:46:54;96084.28;;;14.02;54.11
60874;BME280;46715;40.642;-7.920;2023-04-08T06:48:55;96093.09;;;14.57;51.36
60874;BME280;46715;40.642;-7.920;2023-04-08T06:50:56;96086.50;;;15.05;47.92
60874;BME280;46715;40.642;-7.920;2023-04-08T06:52:57;96085.63;;;15.72;47.87
60874;BME280;46715;40.642;-7.920;2023-04-08T06:54:57;96081.59;;;16.15;44.75
60874;BME280;46715;40.642;-7.920;2023-04-08T06:56:58;96083.50;;;16.58;43.32
60874;BME280;46715;40.642;-7.920;2023-04-08T06:58:58;96088.31;;;16.91;41.41
60874;BME280;46715;40.642;-7.920;2023-04-08T07:00:59;96086.38;;;17.35;41.91
60874;BME280;46715;40.642;-7.920;2023-04-08T07:03:02;96089.53;;;17.67;40.30
60874;BME280;46715;40.642;-7.920;2023-04-08T07:05:03;96089.69;;;18.01;40.08
60874;BME280;46715;40.642;-7.920;2023-04-08T07:07:03;96083.28;;;18.32;39.29
60874;BME280;46715;40.642;-7.920;2023-04-08T07:09:04;96090.94;;;18.67;37.88
60874;BME280;46715;40.642;-7.920;2023-04-08T07:11:04;96090.66;;;18.89;37.81
60874;BME280;46715;40.642;-7.920;2023-04-08T07:13:06;96090.28;;;19.12;37.26
60874;BME280;46715;40.642;-7.920;2023-04-08T07:15:06;96093.88;;;19.41;36.44
60874;BME280;46715;40.642;-7.920;2023-04-08T07:17:10;96091.34;;;19.45;36.98
60874;BME280;46715;40.642;-7.920;2023-04-08T07:19:10;96090.69;;;19.48;36.39
60874;BME280;46715;40.642;-7.920;2023-04-08T07:21:11;96093.66;;;19.46;36.25
60874;BME280;46715;40.642;-7.920;2023-04-08T07:23:13;96102.94;;;19.65;36.13
60874;BME280;46715;40.642;-7.920;2023-04-08T07:25:14;96101.28;;;19.72;36.03
60874;BME280;46715;40.642;-7.920;2023-04-08T07:27:15;96103.63;;;19.99;35.68
60874;BME280;46715;40.642;-7.920;2023-04-08T07:29:17;96103.28;;;20.13;35.34
60874;BME280;46715;40.642;-7.920;2023-04-08T07:31:17;96108.59;;;20.25;35.55
60874;BME280;46715;40.642;-7.920;2023-04-08T07:33:19;96104.81;;;20.38;35.10
60874;BME280;46715;40.642;-7.920;2023-04-08T07:35:19;96103.50;;;20.32;34.80
60874;BME280;46715;40.642;-7.920;2023-04-08T07:37:23;96109.34;;;20.38;34.91
60874;BME280;46715;40.642;-7.920;2023-04-08T07:39:24;96107.00;;;20.36;34.74
60874;BME280;46715;40.642;-7.920;2023-04-08T07:41:24;96110.19;;;20.54;34.60
60874;BME280;46715;40.642;-7.920;2023-04-08T07:43:26;96114.63;;;20.91;33.64
60874;BME280;46715;40.642;-7.920;2023-04-08T07:45:26;96108.16;;;21.33;32.78
60874;BME280;46715;40.642;-7.920;2023-04-08T07:47:27;96105.97;;;22.70;31.57
60874;BME280;46715;40.642;-7.920;2023-04-08T07:49:27;96103.34;;;24.02;29.88
60874;BME280;46715;40.642;-7.920;2023-04-08T07:51:28;96100.34;;;25.32;27.93
60874;BME280;46715;40.642;-7.920;2023-04-08T07:53:29;96103.66;;;26.74;26.25
60874;BME280;46715;40.642;-7.920;2023-04-08T07:55:33;96105.75;;;27.49;24.64
60874;BME280;46715;40.642;-7.920;2023-04-08T07:57:34;96099.22;;;28.26;23.40
60874;BME280;46715;40.642;-7.920;2023-04-08T07:59:35;96107.19;;;28.58;23.46
60874;BME280;46715;40.642;-7.920;2023-04-08T08:01:36;96101.94;;;29.15;22.38
60874;BME280;46715;40.642;-7.920;2023-04-08T08:03:37;96101.72;;;30.00;22.33
60874;BME280;46715;40.642;-7.920;2023-04-08T08:05:38;96103.47;;;30.59;21.07
60874;BME280;46715;40.642;-7.920;2023-04-08T08:07:39;96098.19;;;30.10;21.35
60874;BME280;46715;40.642;-7.920;2023-04-08T08:09:40;96104.66;;;30.54;20.67
60874;BME280;46715;40.642;-7.920;2023-04-08T08:11:41;96107.38;;;30.85;20.85
60874;BME280;46715;40.642;-7.920;2023-04-08T08:13:41;96106.00;;;31.32;19.79
60874;BME280;46715;40.642;-7.920;2023-04-08T08:15:42;96104.41;;;31.61;20.14
60874;BME280;46715;40.642;-7.920;2023-04-08T08:17:43;96103.38;;;32.03;19.91
60874;BME280;46715;40.642;-7.920;2023-04-08T08:19:43;96099.81;;;32.29;19.05
60874;BME280;46715;40.642;-7.920;2023-04-08T08:21:44;96102.38;;;32.37;18.97
60874;BME280;46715;40.642;-7.920;2023-04-08T08:23:47;96105.34;;;32.62;19.35
60874;BME280;46715;40.642;-7.920;2023-04-08T08:25:48;96100.47;;;32.94;18.67
60874;BME280;46715;40.642;-7.920;2023-04-08T08:27:49;96096.13;;;32.80;18.06
60874;BME280;46715;40.642;-7.920;2023-04-08T08:29:50;96098.41;;;33.02;18.36
60874;BME280;46715;40.642;-7.920;2023-04-08T08:31:52;96101.50;;;33.53;18.26
60874;BME280;46715;40.642;-7.920;2023-04-08T08:33:53;96097.44;;;33.45;17.43
60874;BME280;46715;40.642;-7.920;2023-04-08T08:35:53;96092.88;;;33.75;17.82
60874;BME280;46715;40.642;-7.920;2023-04-08T08:37:55;96089.69;;;33.80;17.15
60874;BME280;46715;40.642;-7.920;2023-04-08T08:39:55;96092.53;;;33.40;17.47
60874;BME280;46715;40.642;-7.920;2023-04-08T08:41:57;96093.03;;;34.01;17.17
60874;BME280;46715;40.642;-7.920;2023-04-08T08:43:57;96092.72;;;33.98;17.06
60874;BME280;46715;40.642;-7.920;2023-04-08T08:46:00;96102.63;;;33.89;17.28
60874;BME280;46715;40.642;-7.920;2023-04-08T08:48:00;96095.94;;;33.44;16.83
60874;BME280;46715;40.642;-7.920;2023-04-08T08:50:02;96096.69;;;33.77;17.67
60874;BME280;46715;40.642;-7.920;2023-04-08T08:52:02;96095.41;;;34.28;17.29
60874;BME280;46715;40.642;-7.920;2023-04-08T08:54:03;96100.91;;;34.54;17.30
60874;BME280;46715;40.642;-7.920;2023-04-08T08:56:04;96104.16;;;35.29;16.20
60874;BME280;46715;40.642;-7.920;2023-04-08T08:58:08;96099.09;;;35.92;15.58
60874;BME280;46715;40.642;-7.920;2023-04-08T09:00:08;96103.72;;;36.05;15.73
60874;BME280;46715;40.642;-7.920;2023-04-08T09:02:22;96104.47;;;36.40;15.19
60874;BME280;46715;40.642;-7.920;2023-04-08T09:04:24;96102.59;;;36.15;15.17
60874;BME280;46715;40.642;-7.920;2023-04-08T09:06:25;96107.88;;;35.48;15.51
60874;BME280;46715;40.642;-7.920;2023-04-08T09:10:27;96105.75;;;35.78;15.40
60874;BME280;46715;40.642;-7.920;2023-04-08T09:12:28;96110.19;;;35.85;15.33
60874;BME280;46715;40.642;-7.920;2023-04-08T09:14:30;96104.59;;;35.15;15.85
60874;BME280;46715;40.642;-7.920;2023-04-08T09:16:32;96120.31;;;34.65;15.99
60874;BME280;46715;40.642;-7.920;2023-04-08T09:18:32;96106.56;;;34.89;16.17
60874;BME280;46715;40.642;-7.920;2023-04-08T09:20:33;96116.19;;;35.15;16.01
60874;BME280;46715;40.642;-7.920;2023-04-08T09:22:37;96111.84;;;34.92;15.97
60874;BME280;46715;40.642;-7.920;2023-04-08T09:24:54;96107.22;;;35.06;16.40
60874;BME280;46715;40.642;-7.920;2023-04-08T09:26:55;96108.28;;;34.95;16.85
60874;BME280;46715;40.642;-7.920;2023-04-08T09:28:56;96110.91;;;35.25;16.51
60874;BME280;46715;40.642;-7.920;2023-04-08T09:30:58;96110.22;;;35.08;17.06
60874;BME280;46715;40.642;-7.920;2023-04-08T09:32:59;96104.88;;;34.78;17.47
60874;BME280;46715;40.642;-7.920;2023-04-08T09:35:00;96117.38;;;35.14;16.29
60874;BME280;46715;40.642;-7.920;2023-04-08T09:37:01;96107.06;;;35.74;16.18
60874;BME280;46715;40.642;-7.920;2023-04-08T09:39:02;96111.09;;;35.82;15.37
60874;BME280;46715;40.642;-7.920;2023-04-08T09:41:03;96117.19;;;35.09;16.89
60874;BME280;46715;40.642;-7.920;2023-04-08T09:43:07;96111.53;;;34.90;15.75
60874;BME280;46715;40.642;-7.920;2023-04-08T09:45:08;96109.78;;;34.96;16.00
60874;BME280;46715;40.642;-7.920;2023-04-08T09:47:11;96113.91;;;35.01;15.65
60874;BME280;46715;40.642;-7.920;2023-04-08T09:51:19;96111.00;;;35.21;15.41
60874;BME280;46715;40.642;-7.920;2023-04-08T09:53:29;96116.00;;;35.36;16.04
60874;BME280;46715;40.642;-7.920;2023-04-08T09:55:30;96112.63;;;34.93;15.28
60874;BME280;46715;40.642;-7.920;2023-04-08T09:59:44;96112.09;;;34.56;16.39
60874;BME280;46715;40.642;-7.920;2023-04-08T10:01:49;96108.81;;;35.03;15.70
60874;BME280;46715;40.642;-7.920;2023-04-08T10:03:53;96105.38;;;35.03;13.86
60874;BME280;46715;40.642;-7.920;2023-04-08T10:05:56;96107.38;;;34.30;14.65
60874;BME280;46715;40.642;-7.920;2023-04-08T10:07:57;96113.06;;;34.03;16.04
60874;BME280;46715;40.642;-7.920;2023-04-08T10:09:58;96115.94;;;33.63;16.28
60874;BME280;46715;40.642;-7.920;2023-04-08T10:12:00;96112.81;;;33.31;16.35
60874;BME280;46715;40.642;-7.920;2023-04-08T10:14:00;96107.47;;;34.10;15.03
60874;BME280;46715;40.642;-7.920;2023-04-08T10:16:21;96106.09;;;34.48;13.04
60874;BME280;46715;40.642;-7.920;2023-04-08T10:22:44;96114.25;;;34.90;13.21
60874;BME280;46715;40.642;-7.920;2023-04-08T10:25:12;96110.09;;;34.86;13.41
60874;BME280;46715;40.642;-7.920;2023-04-08T10:27:07;96108.88;;;34.15;14.20
60874;BME280;46715;40.642;-7.920;2023-04-08T10:29:28;96112.41;;;34.58;12.55
60874;BME280;46715;40.642;-7.920;2023-04-08T10:31:29;96111.19;;;34.88;12.55
60874;BME280;46715;40.642;-7.920;2023-04-08T10:33:31;96111.88;;;34.50;13.93
60874;BME280;46715;40.642;-7.920;2023-04-08T10:35:36;96108.88;;;34.31;12.96
60874;BME280;46715;40.642;-7.920;2023-04-08T10:37:37;96114.06;;;34.09;13.18
60874;BME280;46715;40.642;-7.920;2023-04-08T10:39:38;96115.19;;;33.62;14.42
60874;BME280;46715;40.642;-7.920;2023-04-08T10:41:42;96108.53;;;32.97;14.46
60874;BME280;46715;40.642;-7.920;2023-04-08T10:43:43;96118.16;;;32.18;15.65
60874;BME280;46715;40.642;-7.920;2023-04-08T10:45:46;96121.47;;;31.51;16.13
60874;BME280;46715;40.642;-7.920;2023-04-08T10:47:50;96110.41;;;31.45;15.27
60874;BME280;46715;40.642;-7.920;2023-04-08T10:49:52;96117.88;;;31.34;15.46
60874;BME280;46715;40.642;-7.920;2023-04-08T10:51:53;96111.56;;;31.21;16.55
60874;BME280;46715;40.642;-7.920;2023-04-08T10:53:54;96116.56;;;30.88;16.56